createdAt,value
2023-05-23T00:01:58.822Z,7.60
2023-05-23T00:04:26.989Z,7.93
2023-05-23T00:06:54.905Z,7.18
2023-05-23T00:09:22.592Z,7.95
2023-05-23T00:11:50.134Z,8.40
2023-05-23T00:14:17.866Z,8.40
2023-05-23T00:16:49.680Z,7.93
2023-05-23T00:19:17.393Z,8.00
2023-05-23T00:21:45.711Z,8.27
2023-05-23T00:24:13.231Z,8.00
2023-05-23T00:26:40.785Z,7.93
2023-05-23T00:29:08.256Z,8.80
2023-05-23T00:31:35.879Z,8.82
2023-05-23T00:34:03.409Z,8.23
2023-05-23T00:36:31.034Z,8.68
2023-05-23T00:38:58.501Z,8.73
2023-05-23T00:41:27.015Z,9.07
2023-05-23T00:43:54.539Z,7.75
2023-05-23T00:46:22.124Z,8.45
2023-05-23T00:48:49.857Z,8.18
2023-05-23T00:51:18.281Z,8.38
2023-05-23T00:53:45.871Z,8.38
2023-05-23T00:56:13.831Z,8.45
2023-05-23T00:58:41.690Z,8.23
2023-05-23T01:01:09.618Z,8.20
2023-05-23T01:03:37.673Z,8.48
2023-05-23T01:06:05.323Z,8.32
2023-05-23T01:08:32.813Z,8.35
2023-05-23T01:11:03.018Z,9.00
2023-05-23T01:13:30.564Z,8.30
2023-05-23T01:16:03.036Z,8.70
2023-05-23T01:18:35.306Z,9.13
2023-05-23T01:21:13.707Z,9.13
2023-05-23T01:23:47.548Z,8.27
2023-05-23T01:26:35.049Z,9.02
2023-05-23T01:29:10.705Z,9.13
2023-05-23T01:31:40.535Z,8.55
2023-05-23T01:34:08.729Z,8.70
2023-05-23T01:36:38.518Z,8.55
2023-05-23T01:39:06.523Z,9.07
2023-05-23T01:41:35.533Z,9.23
2023-05-23T01:44:03.930Z,8.77
2023-05-23T01:46:31.935Z,9.25
2023-05-23T01:48:59.943Z,9.23
2023-05-23T01:51:27.438Z,9.27
2023-05-23T01:53:55.078Z,9.40
2023-05-23T01:56:22.892Z,9.73
2023-05-23T01:58:51.811Z,9.73
2023-05-23T02:01:19.631Z,9.88
2023-05-23T02:03:47.248Z,9.65
2023-05-23T02:06:14.748Z,10.20
2023-05-23T02:08:42.239Z,10.38
2023-05-23T02:11:10.750Z,10.07
2023-05-23T02:13:38.238Z,10.90
2023-05-23T02:16:06.138Z,10.40
2023-05-23T02:18:33.568Z,10.40
2023-05-23T02:21:02.003Z,10.57
2023-05-23T02:23:29.558Z,10.35
2023-05-23T02:25:57.226Z,10.48
2023-05-23T02:28:24.840Z,10.30
2023-05-23T02:30:52.350Z,11.05
2023-05-23T02:33:19.932Z,11.98
2023-05-23T02:35:47.770Z,11.35
2023-05-23T02:38:16.724Z,10.90
2023-05-23T02:40:44.260Z,11.55
2023-05-23T02:43:11.730Z,10.85
2023-05-23T02:45:39.330Z,10.98
2023-05-23T02:48:06.960Z,11.82
2023-05-23T02:50:34.526Z,11.10
2023-05-23T02:53:02.091Z,11.15
2023-05-23T02:55:29.660Z,11.68
2023-05-23T02:57:58.741Z,10.95
2023-05-23T03:00:26.287Z,11.27
2023-05-23T03:02:57.406Z,10.50
2023-05-23T03:05:25.198Z,11.05
2023-05-23T03:07:52.656Z,11.07
2023-05-23T03:10:20.075Z,11.43
2023-05-23T03:12:48.349Z,11.38
2023-05-23T03:15:17.299Z,10.77
2023-05-23T03:17:45.631Z,11.05
2023-05-23T03:20:16.578Z,11.15
2023-05-23T03:22:45.653Z,10.75
2023-05-23T03:25:13.216Z,11.13
2023-05-23T03:27:40.738Z,11.25
2023-05-23T03:30:09.194Z,10.27
2023-05-23T03:32:37.712Z,10.90
2023-05-23T03:35:05.350Z,11.13
2023-05-23T03:37:32.847Z,10.18
2023-05-23T03:40:00.446Z,11.57
2023-05-23T03:42:29.268Z,10.52
2023-05-23T03:44:56.845Z,11.23
2023-05-23T03:47:24.773Z,10.93
2023-05-23T03:49:53.072Z,10.63
2023-05-23T03:52:20.772Z,10.65
2023-05-23T03:54:48.330Z,11.35
2023-05-23T03:57:16.418Z,11.73
2023-05-23T03:59:44.226Z,11.23
2023-05-23T04:02:13.353Z,10.95
2023-05-23T04:04:41.285Z,10.98
2023-05-23T04:07:10.150Z,11.20
2023-05-23T04:09:39.336Z,11.15
2023-05-23T04:12:12.076Z,11.50
2023-05-23T04:14:39.870Z,10.85
2023-05-23T04:17:09.137Z,10.15
2023-05-23T04:19:37.204Z,11.38
2023-05-23T04:22:04.734Z,11.00
2023-05-23T04:24:33.360Z,11.00
2023-05-23T04:27:00.904Z,10.27
2023-05-23T04:29:31.634Z,10.45
2023-05-23T04:31:59.579Z,10.60
2023-05-23T04:34:27.124Z,11.40
2023-05-23T04:36:54.821Z,10.30
2023-05-23T04:39:22.686Z,10.38
2023-05-23T04:42:15.068Z,11.32
2023-05-23T04:44:51.604Z,12.00
2023-05-23T04:47:30.032Z,11.63
2023-05-23T04:50:06.840Z,11.60
2023-05-23T04:52:35.164Z,10.40
2023-05-23T04:55:03.039Z,11.32
2023-05-23T04:57:30.870Z,10.32
2023-05-23T04:59:58.367Z,11.38
2023-05-23T05:02:27.760Z,11.30
2023-05-23T05:04:55.351Z,10.95
2023-05-23T05:07:23.082Z,11.40
2023-05-23T05:09:50.535Z,10.25
2023-05-23T05:12:18.499Z,10.48
2023-05-23T05:14:46.148Z,10.63
2023-05-23T05:17:13.994Z,10.57
2023-05-23T05:19:52.678Z,10.63
2023-05-23T05:22:20.120Z,10.18
2023-05-23T05:24:47.579Z,9.40
2023-05-23T05:27:15.165Z,9.77
2023-05-23T05:29:42.619Z,9.75
2023-05-23T05:32:10.297Z,9.05
2023-05-23T05:34:38.100Z,8.65
2023-05-23T05:37:07.068Z,9.57
2023-05-23T05:39:34.535Z,8.80
2023-05-23T05:42:03.839Z,9.23
2023-05-23T05:44:31.922Z,8.57
2023-05-23T05:46:59.349Z,9.38
2023-05-23T05:49:26.900Z,9.57
2023-05-23T05:51:56.070Z,8.70
2023-05-23T05:54:23.827Z,8.27
2023-05-23T05:56:51.364Z,8.52
2023-05-23T05:59:18.995Z,8.80
2023-05-23T06:01:46.440Z,8.48
2023-05-23T06:04:14.680Z,9.10
2023-05-23T06:06:42.426Z,9.32
2023-05-23T06:09:11.029Z,8.40
2023-05-23T06:11:41.103Z,8.50
2023-05-23T06:14:09.613Z,8.40
2023-05-23T06:16:40.652Z,8.60
2023-05-23T06:19:08.609Z,8.30
2023-05-23T06:21:37.580Z,8.20
2023-05-23T06:24:07.451Z,8.38
2023-05-23T06:26:35.020Z,7.82
2023-05-23T06:29:02.489Z,7.25
2023-05-23T06:31:29.976Z,7.60
2023-05-23T06:33:58.836Z,7.95
2023-05-23T06:36:26.614Z,8.10
2023-05-23T06:38:55.919Z,7.57
2023-05-23T06:41:23.822Z,7.45
2023-05-23T06:43:53.313Z,7.03
2023-05-23T06:46:25.551Z,7.03
2023-05-23T06:49:02.751Z,6.72
2023-05-23T06:51:40.892Z,6.28
2023-05-23T06:54:08.412Z,5.90
2023-05-23T06:56:36.427Z,5.93
2023-05-23T06:59:05.225Z,5.80
2023-05-23T07:01:32.826Z,7.00
2023-05-23T07:04:00.339Z,6.55
2023-05-23T07:06:28.066Z,5.35
2023-05-23T07:08:55.742Z,4.95
2023-05-23T07:11:24.383Z,5.63
2023-05-23T07:13:56.034Z,5.60
2023-05-23T07:16:36.682Z,5.18
2023-05-23T07:19:07.386Z,5.43
2023-05-23T07:21:41.168Z,5.90
2023-05-23T07:24:09.016Z,5.22
2023-05-23T07:26:36.589Z,5.28
2023-05-23T07:29:04.152Z,5.50
2023-05-23T07:31:31.906Z,5.53
2023-05-23T07:34:00.422Z,4.90
2023-05-23T07:36:35.782Z,4.82
2023-05-23T07:39:04.965Z,11.45
2023-05-23T07:41:32.410Z,5.07
2023-05-23T07:43:59.894Z,5.03
2023-05-23T07:46:27.588Z,7.25
2023-05-23T07:48:55.498Z,6.43
2023-05-23T07:51:24.265Z,9.32
2023-05-23T07:53:52.495Z,4.93
2023-05-23T07:56:23.241Z,5.25
2023-05-23T07:58:50.911Z,4.18
2023-05-23T08:01:18.568Z,4.93
2023-05-23T08:04:06.721Z,5.40
2023-05-23T08:07:04.451Z,4.80
2023-05-23T08:09:42.993Z,9.90
2023-05-23T08:12:14.093Z,4.32
2023-05-23T08:14:50.771Z,4.15
2023-05-23T08:17:24.958Z,4.22
2023-05-23T08:19:53.170Z,4.03
2023-05-23T08:22:20.773Z,4.25
2023-05-23T08:24:48.652Z,3.83
2023-05-23T08:27:16.392Z,4.25
2023-05-23T08:29:45.400Z,3.88
2023-05-23T08:32:13.351Z,4.95
2023-05-23T08:34:42.249Z,4.07
2023-05-23T08:37:09.857Z,4.57
2023-05-23T08:39:37.453Z,4.28
2023-05-23T08:42:34.153Z,3.95
2023-05-23T08:45:01.961Z,6.22
2023-05-23T08:47:30.094Z,3.88
2023-05-23T08:50:03.510Z,4.28
2023-05-23T08:52:34.420Z,4.13
2023-05-23T08:55:02.878Z,4.70
2023-05-23T08:57:31.706Z,4.07
2023-05-23T09:00:14.606Z,4.20
2023-05-23T09:02:46.349Z,4.45
2023-05-23T09:05:28.530Z,4.35
2023-05-23T09:07:57.174Z,3.92
2023-05-23T09:10:25.609Z,4.30
2023-05-23T09:12:53.126Z,4.22
2023-05-23T09:15:22.384Z,3.90
2023-05-23T09:17:50.559Z,3.75
2023-05-23T09:20:18.885Z,3.58
2023-05-23T09:22:56.001Z,3.67
2023-05-23T09:25:23.654Z,4.07
2023-05-23T09:27:54.433Z,3.60
2023-05-23T09:30:21.967Z,3.88
2023-05-23T09:33:07.507Z,4.25
2023-05-23T09:35:35.245Z,4.22
2023-05-23T09:38:02.793Z,3.70
2023-05-23T09:40:33.211Z,3.75
2023-05-23T09:43:05.423Z,3.35
2023-05-23T09:45:33.582Z,3.88
2023-05-23T09:48:02.497Z,3.60
2023-05-23T09:50:33.530Z,3.42
2023-05-23T09:53:01.991Z,3.80
2023-05-23T09:55:29.451Z,3.85
2023-05-23T09:57:59.553Z,3.35
2023-05-23T10:00:28.612Z,3.58
2023-05-23T10:02:56.186Z,3.80
2023-05-23T10:05:38.991Z,3.72
2023-05-23T10:08:10.749Z,3.38
2023-05-23T10:10:55.278Z,3.65
2023-05-23T10:13:23.540Z,4.10
2023-05-23T10:15:51.184Z,4.20
2023-05-23T10:18:24.873Z,3.72
2023-05-23T10:20:54.989Z,3.78
2023-05-23T10:23:22.475Z,3.60
2023-05-23T10:25:49.981Z,3.65
2023-05-23T10:28:17.614Z,4.20
2023-05-23T10:30:45.218Z,3.63
2023-05-23T10:33:14.746Z,3.42
2023-05-23T10:35:48.823Z,3.65
2023-05-23T10:38:34.681Z,3.50
2023-05-23T10:41:11.915Z,3.85
2023-05-23T10:43:58.124Z,3.70
2023-05-23T10:46:45.641Z,3.78
2023-05-23T10:49:13.120Z,3.90
2023-05-23T10:51:40.565Z,3.47
2023-05-23T10:54:12.322Z,3.88
2023-05-23T10:56:39.903Z,3.70
2023-05-23T10:59:07.396Z,3.90
2023-05-23T11:01:40.097Z,3.30
2023-05-23T11:04:07.765Z,2.90
2023-05-23T11:06:43.019Z,3.20
2023-05-23T11:09:13.565Z,3.13
2023-05-23T11:11:59.116Z,2.90
2023-05-23T11:14:32.833Z,3.72
2023-05-23T11:17:01.134Z,3.03
2023-05-23T11:19:29.960Z,3.28
2023-05-23T11:22:03.968Z,3.40
2023-05-23T11:24:51.111Z,3.80
2023-05-23T11:27:38.969Z,4.40
2023-05-23T11:30:14.428Z,3.78
2023-05-23T11:32:42.612Z,3.28
2023-05-23T11:35:13.113Z,3.72
2023-05-23T11:37:40.915Z,3.78
2023-05-23T11:40:27.491Z,3.78
2023-05-23T11:42:55.657Z,3.15
2023-05-23T11:45:23.698Z,3.20
2023-05-23T11:47:51.316Z,3.22
2023-05-23T11:50:20.689Z,2.95
2023-05-23T11:52:51.814Z,3.03
2023-05-23T11:55:23.025Z,2.95
2023-05-23T11:57:51.933Z,2.90
2023-05-23T12:00:19.920Z,3.05
2023-05-23T12:02:49.107Z,2.80
2023-05-23T12:05:16.866Z,2.50
2023-05-23T12:07:48.774Z,2.60
2023-05-23T12:10:16.884Z,3.00
2023-05-23T12:12:44.882Z,2.92
2023-05-23T12:15:12.961Z,2.85
2023-05-23T12:17:45.706Z,2.53
2023-05-23T12:20:13.548Z,2.47
2023-05-23T12:22:41.177Z,2.75
2023-05-23T12:25:11.689Z,2.70
2023-05-23T12:27:40.815Z,3.15
2023-05-23T12:30:12.318Z,2.78
2023-05-23T12:32:43.386Z,3.17
2023-05-23T12:35:15.208Z,2.85
2023-05-23T12:37:45.852Z,3.33
2023-05-23T12:40:18.124Z,3.47
2023-05-23T12:42:54.275Z,3.38
2023-05-23T12:45:24.628Z,3.50
2023-05-23T12:47:54.217Z,3.60
2023-05-23T12:50:22.100Z,3.60
2023-05-23T12:52:49.632Z,3.60
2023-05-23T12:55:17.069Z,3.65
2023-05-23T12:57:44.729Z,4.20
2023-05-23T13:00:12.538Z,3.90
2023-05-23T13:02:40.181Z,3.90
2023-05-23T13:05:08.153Z,4.10
2023-05-23T13:07:35.768Z,3.90
2023-05-23T13:10:03.264Z,4.35
2023-05-23T13:12:30.990Z,4.30
2023-05-23T13:14:58.771Z,4.45
2023-05-23T13:17:26.259Z,4.10
2023-05-23T13:19:53.706Z,4.80
2023-05-23T13:22:21.240Z,4.75
2023-05-23T13:24:48.657Z,4.95
2023-05-23T13:27:16.183Z,5.05
2023-05-23T13:29:43.617Z,4.30
2023-05-23T13:32:11.211Z,4.35
2023-05-23T13:34:38.808Z,4.93
2023-05-23T13:37:06.610Z,5.35
2023-05-23T13:39:34.226Z,5.07
2023-05-23T13:42:01.669Z,4.82
2023-05-23T13:44:29.203Z,4.78
2023-05-23T13:46:59.475Z,4.28
2023-05-23T13:49:26.992Z,4.10
2023-05-23T13:51:54.412Z,3.85
2023-05-23T13:54:22.288Z,4.22
2023-05-23T13:56:49.935Z,4.03
2023-05-23T13:59:21.225Z,3.70
2023-05-23T14:01:49.079Z,3.85
2023-05-23T14:04:16.638Z,3.80
2023-05-23T14:06:44.130Z,3.90
2023-05-23T14:09:12.696Z,5.05
2023-05-23T14:11:43.264Z,3.30
2023-05-23T14:14:11.101Z,3.53
2023-05-23T14:16:38.572Z,3.35
2023-05-23T14:19:06.199Z,2.90
2023-05-23T14:21:35.036Z,3.50
2023-05-23T14:24:02.487Z,3.80
2023-05-23T14:26:30.176Z,3.40
2023-05-23T14:28:57.762Z,2.78
2023-05-23T14:31:25.350Z,3.00
2023-05-23T14:33:52.921Z,3.03
2023-05-23T14:36:20.416Z,3.50
2023-05-23T14:38:47.932Z,3.00
2023-05-23T14:41:15.353Z,3.15
2023-05-23T14:43:42.880Z,2.92
2023-05-23T14:46:10.527Z,3.00
2023-05-23T14:48:38.046Z,2.95
2023-05-23T14:51:06.979Z,3.00
2023-05-23T14:53:34.617Z,2.83
2023-05-23T14:56:02.216Z,3.40
2023-05-23T14:58:29.751Z,3.75
2023-05-23T15:00:57.478Z,3.03
2023-05-23T15:03:24.995Z,3.60
2023-05-23T15:05:52.487Z,3.33
2023-05-23T15:08:20.018Z,3.33
2023-05-23T15:10:47.705Z,3.20
2023-05-23T15:13:15.249Z,3.50
2023-05-23T15:15:43.066Z,3.42
2023-05-23T15:18:15.148Z,4.63
2023-05-23T15:20:48.582Z,3.60
2023-05-23T15:23:16.983Z,3.92
2023-05-23T15:25:49.313Z,3.47
2023-05-23T15:28:17.779Z,3.30
2023-05-23T15:30:45.270Z,3.92
2023-05-23T15:33:12.987Z,4.32
2023-05-23T15:35:40.857Z,3.80
2023-05-23T15:38:08.490Z,3.65
2023-05-23T15:40:35.981Z,3.38
2023-05-23T15:43:03.475Z,3.63
2023-05-23T15:45:30.959Z,3.65
2023-05-23T15:47:58.886Z,3.40
2023-05-23T15:50:26.315Z,3.72
2023-05-23T15:52:53.782Z,3.78
2023-05-23T15:55:21.435Z,4.03
2023-05-23T15:57:48.969Z,5.38
2023-05-23T16:00:16.831Z,5.28
2023-05-23T16:02:44.408Z,4.70
2023-05-23T16:05:12.051Z,4.13
2023-05-23T16:07:39.484Z,4.18
2023-05-23T16:10:07.247Z,4.20
2023-05-23T16:12:34.732Z,4.43
2023-05-23T16:15:02.134Z,4.72
2023-05-23T16:17:29.728Z,4.00
2023-05-23T16:19:57.218Z,3.95
2023-05-23T16:22:24.755Z,4.40
2023-05-23T16:24:53.426Z,4.53
2023-05-23T16:27:22.257Z,5.10
2023-05-23T16:29:49.746Z,4.65
2023-05-23T16:32:17.434Z,4.80
2023-05-23T16:34:49.630Z,4.30
2023-05-23T16:37:20.362Z,5.43
2023-05-23T16:39:47.975Z,4.75
2023-05-23T16:42:15.524Z,5.82
2023-05-23T16:44:43.029Z,6.78
2023-05-23T16:47:10.619Z,5.30
2023-05-23T16:49:38.075Z,5.50
2023-05-23T16:52:05.929Z,6.28
2023-05-23T16:54:33.459Z,5.45
2023-05-23T16:57:02.016Z,5.60
2023-05-23T16:59:30.045Z,5.28
2023-05-23T17:01:57.797Z,5.38
2023-05-23T17:04:25.271Z,5.05
2023-05-23T17:06:52.723Z,5.20
2023-05-23T17:09:22.162Z,7.78
2023-05-23T17:11:50.129Z,5.65
2023-05-23T17:14:17.686Z,3.95
2023-05-23T17:16:45.230Z,3.55
2023-05-23T17:19:12.641Z,3.30
2023-05-23T17:21:40.121Z,3.30
2023-05-23T17:24:07.903Z,3.70
2023-05-23T17:26:35.318Z,3.30
2023-05-23T17:29:02.921Z,3.30
2023-05-23T17:31:30.987Z,3.35
2023-05-23T17:33:58.612Z,3.72
2023-05-23T17:36:26.316Z,3.90
2023-05-23T17:38:53.873Z,3.75
2023-05-23T17:41:24.952Z,3.90
2023-05-23T17:43:54.975Z,3.75
2023-05-23T17:46:22.759Z,3.72
2023-05-23T17:48:50.278Z,4.20
2023-05-23T17:51:18.190Z,4.40
2023-05-23T17:53:45.755Z,4.18
2023-05-23T17:56:13.522Z,4.57
2023-05-23T17:58:42.585Z,4.10
2023-05-23T18:01:11.909Z,3.95
2023-05-23T18:03:39.485Z,3.83
2023-05-23T18:06:07.126Z,4.90
2023-05-23T18:08:34.577Z,4.38
2023-05-23T18:11:02.641Z,4.05
2023-05-23T18:13:30.164Z,4.38
2023-05-23T18:15:57.764Z,5.38
2023-05-23T18:18:25.350Z,4.20
2023-05-23T18:20:52.979Z,4.25
2023-05-23T18:23:20.774Z,4.60
2023-05-23T18:25:48.565Z,4.55
2023-05-23T18:28:16.120Z,4.97
2023-05-23T18:30:43.820Z,4.40
2023-05-23T18:33:11.453Z,5.68
2023-05-23T18:35:39.136Z,4.60
2023-05-23T18:38:06.809Z,4.90
2023-05-23T18:40:34.533Z,4.90
2023-05-23T18:43:02.346Z,5.25
2023-05-23T18:45:29.850Z,5.80
2023-05-23T18:47:57.283Z,5.97
2023-05-23T18:50:26.008Z,4.50
2023-05-23T18:52:53.440Z,4.30
2023-05-23T18:55:21.028Z,4.60
2023-05-23T18:57:48.627Z,5.03
2023-05-23T19:00:16.175Z,5.03
2023-05-23T19:02:45.435Z,5.20
2023-05-23T19:05:13.341Z,4.78
2023-05-23T19:07:40.933Z,4.82
2023-05-23T19:10:08.835Z,4.55
2023-05-23T19:12:36.366Z,5.10
2023-05-23T19:15:04.438Z,6.10
2023-05-23T19:17:32.877Z,5.85
2023-05-23T19:20:00.486Z,5.78
2023-05-23T19:22:31.452Z,4.68
2023-05-23T19:25:03.700Z,4.85
2023-05-23T19:27:31.488Z,4.70
2023-05-23T19:29:58.998Z,5.07
2023-05-23T19:32:26.588Z,4.85
2023-05-23T19:34:55.373Z,5.38
2023-05-23T19:37:22.810Z,5.40
2023-05-23T19:39:50.352Z,5.00
2023-05-23T19:42:17.993Z,5.30
2023-05-23T19:44:50.277Z,5.70
2023-05-23T19:47:17.720Z,6.05
2023-05-23T19:49:45.140Z,6.13
2023-05-23T19:52:12.728Z,5.53
2023-05-23T19:54:40.196Z,5.60
2023-05-23T19:57:07.940Z,5.88
2023-05-23T19:59:35.435Z,5.13
2023-05-23T20:02:02.872Z,6.15
2023-05-23T20:04:30.372Z,5.93
2023-05-23T20:06:57.930Z,6.70
2023-05-23T20:09:25.426Z,6.25
2023-05-23T20:11:52.928Z,6.22
2023-05-23T20:14:20.663Z,6.28
2023-05-23T20:16:48.109Z,6.35
2023-05-23T20:19:15.707Z,6.05
2023-05-23T20:21:43.192Z,6.70
2023-05-23T20:24:11.801Z,6.95
2023-05-23T20:26:39.267Z,7.30
2023-05-23T20:29:06.811Z,6.63
2023-05-23T20:31:34.394Z,6.65
2023-05-23T20:34:01.913Z,6.60
2023-05-23T20:36:29.628Z,6.20
2023-05-23T20:38:58.263Z,6.82
2023-05-23T20:41:25.756Z,6.47
2023-05-23T20:43:53.214Z,6.82
2023-05-23T20:46:20.820Z,5.93
2023-05-23T20:48:48.280Z,6.03
2023-05-23T20:51:16.286Z,6.38
2023-05-23T20:53:43.733Z,5.65
2023-05-23T20:56:11.294Z,6.93
2023-05-23T20:58:38.833Z,7.30
2023-05-23T21:01:06.430Z,6.85
2023-05-23T21:03:33.926Z,6.13
2023-05-23T21:06:01.375Z,6.43
2023-05-23T21:08:28.769Z,7.00
2023-05-23T21:10:56.519Z,6.93
2023-05-23T21:13:24.252Z,6.60
2023-05-23T21:15:51.775Z,6.45
2023-05-23T21:18:19.449Z,6.38
2023-05-23T21:20:47.077Z,7.15
2023-05-23T21:23:14.585Z,6.65
2023-05-23T21:25:42.059Z,7.10
2023-05-23T21:28:09.586Z,7.30
2023-05-23T21:30:37.490Z,7.25
2023-05-23T21:33:04.902Z,7.32
2023-05-23T21:35:32.385Z,7.15
2023-05-23T21:37:59.793Z,7.57
2023-05-23T21:40:27.784Z,7.03
2023-05-23T21:42:55.249Z,7.45
2023-05-23T21:45:22.817Z,7.10
2023-05-23T21:47:50.281Z,7.82
2023-05-23T21:50:17.843Z,7.53
2023-05-23T21:52:45.280Z,7.38
2023-05-23T21:55:12.772Z,8.15
2023-05-23T21:57:40.191Z,7.80
2023-05-23T22:00:12.291Z,7.30
2023-05-23T22:05:13.251Z,7.53
2023-05-23T22:07:40.876Z,7.63
2023-05-23T22:10:08.555Z,7.72
2023-05-23T22:12:36.316Z,8.43
2023-05-23T22:15:03.753Z,8.10
2023-05-23T22:17:34.180Z,8.70
2023-05-23T22:20:05.128Z,8.18
2023-05-23T22:22:32.724Z,7.40
2023-05-23T22:25:00.139Z,7.65
2023-05-23T22:27:27.681Z,7.60
2023-05-23T22:29:55.094Z,6.78
2023-05-23T22:32:22.576Z,6.40
2023-05-23T22:34:50.041Z,5.65
2023-05-23T22:37:17.613Z,5.68
2023-05-23T22:39:45.017Z,5.82
2023-05-23T22:42:12.538Z,6.18
2023-05-23T22:44:40.022Z,6.28
2023-05-23T22:47:10.225Z,6.43
2023-05-23T22:49:37.760Z,6.20
2023-05-23T22:52:05.296Z,6.20
2023-05-23T22:54:32.774Z,6.07
2023-05-23T22:57:00.251Z,6.30
2023-05-23T22:59:27.808Z,5.80
2023-05-23T23:01:55.305Z,5.72
2023-05-23T23:04:23.694Z,6.10
2023-05-23T23:06:53.846Z,5.88
2023-05-23T23:09:21.470Z,6.28
2023-05-23T23:11:48.925Z,6.50
2023-05-23T23:14:16.448Z,6.45
2023-05-23T23:16:46.334Z,5.90
2023-05-23T23:19:13.981Z,5.80
2023-05-23T23:21:41.392Z,6.10
2023-05-23T23:24:09.001Z,5.78
2023-05-23T23:26:36.495Z,5.72
2023-05-23T23:29:04.333Z,6.25
2023-05-23T23:31:31.845Z,5.57
2023-05-23T23:33:59.495Z,5.53
2023-05-23T23:36:26.973Z,5.60
2023-05-23T23:38:54.397Z,5.70
2023-05-23T23:41:22.887Z,6.30
2023-05-23T23:43:50.560Z,6.72
2023-05-23T23:46:18.787Z,5.70
2023-05-23T23:48:46.426Z,6.00
2023-05-23T23:51:13.912Z,5.30
2023-05-23T23:53:41.392Z,5.85
2023-05-23T23:56:08.796Z,5.95
2023-05-23T23:58:36.484Z,6.18
